Time;durP1;ratioP1;P1;durP2;ratioP2;P2;SDS_P1;SDS_P2;PMS_P1;PMS_P2;Temp;Humidity;BMP_temperature;BMP_pressure;BME280_temperature;BME280_humidity;BME280_pressure;Samples;Min_cycle;Max_cycle;Signal;HPM_P1;HPM_P2
2021/11/20 00:00:41;;;;;;;10.50;6.83;;;10.80;85.50;;;;;;4912820;29;20460;-43
2021/11/20 00:03:09;;;;;;;6.47;5.87;;;10.80;85.30;;;;;;4899179;29;20555;-43
2021/11/20 00:05:41;;;;;;;9.03;6.50;;;10.80;85.40;;;;;;4911202;29;21043;-43
2021/11/20 00:08:09;;;;;;;10.47;7.87;;;10.80;85.50;;;;;;4912276;29;20469;-43
2021/11/20 00:10:39;;;;;;;8.10;6.67;;;10.80;85.60;;;;;;4895777;29;20461;-43
2021/11/20 00:13:08;;;;;;;7.97;7.20;;;10.70;85.70;;;;;;4911062;29;20469;-43
2021/11/20 00:15:38;;;;;;;6.50;5.90;;;10.80;85.70;;;;;;4912450;29;20877;-43
2021/11/20 00:18:07;;;;;;;7.47;6.67;;;10.80;85.60;;;;;;4895634;29;20502;-43
2021/11/20 00:20:38;;;;;;;8.60;6.37;;;10.80;85.60;;;;;;4893209;29;20834;-43
2021/11/20 00:23:06;;;;;;;15.50;8.67;;;10.80;85.60;;;;;;4906958;29;20469;-43
2021/11/20 00:25:42;;;;;;;9.70;8.10;;;10.70;85.70;;;;;;4912191;29;20456;-43
2021/11/20 00:28:11;;;;;;;12.27;9.87;;;10.80;85.70;;;;;;4912775;29;20467;-43
2021/11/20 00:30:52;;;;;;;15.43;10.87;;;10.80;85.70;;;;;;4911379;29;20475;-43
2021/11/20 00:33:23;;;;;;;13.00;9.90;;;10.70;85.70;;;;;;4911219;29;20504;-43
2021/11/20 00:35:52;;;;;;;17.43;11.07;;;10.80;85.60;;;;;;4910290;29;20472;-42
2021/11/20 00:38:19;;;;;;;16.80;11.50;;;10.70;85.70;;;;;;4895511;29;20525;-43
2021/11/20 00:40:50;;;;;;;17.00;11.80;;;10.70;85.70;;;;;;4912641;29;20722;-43
2021/11/20 00:43:19;;;;;;;18.33;12.30;;;10.70;85.60;;;;;;4911197;29;20827;-43
2021/11/20 00:45:47;;;;;;;17.27;12.10;;;10.70;85.50;;;;;;4897251;29;20449;-43
2021/11/20 00:48:16;;;;;;;20.20;12.50;;;10.70;85.60;;;;;;4911484;29;20952;-43
2021/11/20 00:50:48;;;;;;;16.10;11.60;;;10.70;85.40;;;;;;4912350;29;20488;-43
2021/11/20 00:53:15;;;;;;;17.70;11.90;;;10.60;85.70;;;;;;4911542;29;20465;-43
2021/11/20 00:55:42;;;;;;;16.30;12.97;;;10.60;85.90;;;;;;4911519;29;20485;-43
2021/11/20 00:58:09;;;;;;;16.47;11.20;;;10.60;86.00;;;;;;4899587;29;20903;-43
2021/11/20 01:00:40;;;;;;;17.83;11.77;;;10.60;85.80;;;;;;4895527;29;20445;-43
2021/11/20 01:03:09;;;;;;;20.70;11.63;;;10.60;86.00;;;;;;4896601;29;20480;-43
2021/11/20 01:05:36;;;;;;;15.63;11.77;;;10.60;86.10;;;;;;4910844;29;20823;-43
2021/11/20 01:08:06;;;;;;;14.03;11.50;;;10.60;86.00;;;;;;4910892;29;20467;-43
2021/11/20 01:10:36;;;;;;;16.77;10.90;;;10.60;86.00;;;;;;4909817;29;20817;-43
2021/11/20 01:13:04;;;;;;;15.27;11.53;;;10.60;86.00;;;;;;4894637;29;20536;-43
2021/11/20 01:15:36;;;;;;;19.53;11.50;;;10.50;86.00;;;;;;4911913;29;20548;-43
2021/11/20 01:18:05;;;;;;;17.77;12.47;;;10.50;86.10;;;;;;4877001;29;20464;-43
2021/11/20 01:20:32;;;;;;;18.00;12.73;;;10.50;86.10;;;;;;4911061;29;20953;-43
2021/11/20 01:22:59;;;;;;;14.10;11.20;;;10.50;86.10;;;;;;4909061;29;20464;-43
2021/11/20 01:25:27;;;;;;;16.97;12.20;;;10.50;86.10;;;;;;4909485;29;20984;-43
2021/11/20 01:27:54;;;;;;;16.17;12.63;;;10.40;86.20;;;;;;4908545;29;20475;-43
2021/11/20 01:30:22;;;;;;;21.13;12.93;;;10.50;86.10;;;;;;4909629;29;20448;-43
2021/11/20 01:32:49;;;;;;;18.87;11.83;;;10.50;86.00;;;;;;4894740;29;20457;-43
2021/11/20 01:35:16;;;;;;;18.93;13.03;;;10.50;86.00;;;;;;4910242;29;20829;-43
2021/11/20 01:37:45;;;;;;;22.13;12.10;;;10.50;86.00;;;;;;4910732;29;20528;-43
2021/11/20 01:40:17;;;;;;;19.37;12.43;;;10.50;86.10;;;;;;4910981;29;21024;-43
2021/11/20 01:42:44;;;;;;;17.50;11.40;;;10.40;86.20;;;;;;4893638;29;20449;-43
2021/11/20 01:45:15;;;;;;;16.77;12.67;;;10.50;86.10;;;;;;4907825;29;20468;-43
2021/11/20 01:48:24;;;;;;;19.00;12.33;;;10.40;86.20;;;;;;4908122;29;20813;-43
2021/11/20 01:51:00;;;;;;;15.40;11.93;;;10.50;86.20;;;;;;4888285;29;20844;-43
2021/11/20 01:53:42;;;;;;;15.07;12.37;;;10.50;86.00;;;;;;4899626;29;20486;-43
2021/11/20 01:56:18;;;;;;;18.13;11.40;;;10.50;86.10;;;;;;4898334;29;20502;-43
2021/11/20 01:59:15;;;;;;;19.00;11.90;;;10.40;86.30;;;;;;4911279;29;21007;-43
2021/11/20 02:01:44;;;;;;;19.40;13.07;;;10.50;86.10;;;;;;4910492;29;20478;-42
2021/11/20 02:04:46;;;;;;;15.90;12.37;;;10.40;86.10;;;;;;4912722;29;20496;-42
2021/11/20 02:07:27;;;;;;;18.53;11.23;;;10.40;86.30;;;;;;4838807;29;20860;-43
2021/11/20 02:10:18;;;;;;;17.13;11.30;;;10.40;86.40;;;;;;4902393;29;20473;-43
2021/11/20 02:12:58;;;;;;;20.00;13.00;;;10.40;86.40;;;;;;4896250;29;20469;-43
2021/11/20 02:15:33;;;;;;;18.33;12.60;;;10.40;86.40;;;;;;4910349;29;20456;-43
2021/11/20 02:18:01;;;;;;;16.17;11.97;;;10.40;86.40;;;;;;4912496;29;20479;-43
2021/11/20 02:20:37;;;;;;;16.20;12.03;;;10.30;86.30;;;;;;4911393;29;20488;-42
2021/11/20 02:23:05;;;;;;;12.73;10.43;;;10.30;86.40;;;;;;4876735;29;20461;-42
2021/11/20 02:25:32;;;;;;;17.00;11.53;;;10.30;86.40;;;;;;4896249;29;20988;-42
2021/11/20 02:28:00;;;;;;;16.93;11.83;;;10.20;86.70;;;;;;4914325;29;20851;-42
2021/11/20 02:30:37;;;;;;;19.50;12.07;;;10.20;86.70;;;;;;4912598;29;20468;-42
2021/11/20 02:33:25;;;;;;;15.60;10.83;;;10.20;86.70;;;;;;4910856;29;20820;-42
2021/11/20 02:35:52;;;;;;;15.27;11.10;;;10.20;86.80;;;;;;4912717;29;20960;-41
2021/11/20 02:38:26;;;;;;;17.00;11.67;;;10.20;86.80;;;;;;4911381;29;20484;-41
2021/11/20 02:40:56;;;;;;;15.10;12.23;;;10.20;86.80;;;;;;4910766;29;20496;-42
2021/11/20 02:43:24;;;;;;;15.13;10.93;;;10.20;87.00;;;;;;4895817;29;20457;-42
2021/11/20 02:45:53;;;;;;;16.10;12.43;;;10.20;86.80;;;;;;4913726;29;20453;-42
2021/11/20 02:48:22;;;;;;;18.60;12.23;;;10.20;86.90;;;;;;4913306;29;20916;-42
2021/11/20 02:50:54;;;;;;;17.97;12.00;;;10.20;86.80;;;;;;4926733;29;20554;-42
2021/11/20 02:53:28;;;;;;;16.90;12.77;;;10.20;86.90;;;;;;4913572;29;20457;-41
2021/11/20 02:55:55;;;;;;;16.33;11.83;;;10.20;86.80;;;;;;4897990;29;20480;-42
2021/11/20 02:58:24;;;;;;;18.93;13.73;;;10.20;86.90;;;;;;4913265;29;20463;-42
2021/11/20 03:01:06;;;;;;;16.97;12.20;;;10.20;87.00;;;;;;4894489;29;20460;-42
2021/11/20 03:03:33;;;;;;;16.40;13.03;;;10.20;87.00;;;;;;4913938;29;20480;-42
2021/11/20 03:06:00;;;;;;;17.37;11.63;;;10.20;86.90;;;;;;4913432;29;20453;-42
2021/11/20 03:08:27;;;;;;;19.33;12.03;;;10.20;86.80;;;;;;4911438;29;20582;-42
2021/11/20 03:10:54;;;;;;;18.50;13.80;;;10.20;87.00;;;;;;4914483;29;20471;-42
2021/11/20 03:13:21;;;;;;;25.50;12.80;;;10.10;87.00;;;;;;4914229;29;20551;-42
2021/11/20 03:15:48;;;;;;;20.23;14.33;;;10.20;87.10;;;;;;4919427;29;20467;-43
2021/11/20 03:18:15;;;;;;;23.73;14.47;;;10.10;87.10;;;;;;4903162;29;20464;-43
2021/11/20 03:20:43;;;;;;;17.47;11.93;;;10.10;87.10;;;;;;4904474;29;20559;-43
2021/11/20 03:23:18;;;;;;;17.03;13.50;;;10.10;87.20;;;;;;4920205;29;20460;-43
2021/11/20 03:25:46;;;;;;;18.33;13.67;;;10.10;87.10;;;;;;4921949;29;20523;-43
2021/11/20 03:28:13;;;;;;;18.33;12.43;;;10.10;87.10;;;;;;4904708;29;20467;-43
2021/11/20 03:30:41;;;;;;;18.13;12.40;;;10.20;87.10;;;;;;4906066;29;20532;-43
2021/11/20 03:33:08;;;;;;;17.57;12.00;;;10.20;86.70;;;;;;4921017;29;20473;-43
2021/11/20 03:35:35;;;;;;;16.47;12.10;;;10.10;86.80;;;;;;4920630;29;20948;-43
2021/11/20 03:38:02;;;;;;;14.30;11.50;;;10.10;87.00;;;;;;4903964;29;20465;-43
2021/11/20 03:40:29;;;;;;;16.30;12.10;;;10.10;87.10;;;;;;4903604;29;20520;-43
2021/11/20 03:42:56;;;;;;;16.30;12.50;;;10.00;87.20;;;;;;4920705;29;21028;-43
2021/11/20 03:45:26;;;;;;;16.80;12.60;;;10.00;87.20;;;;;;4919534;29;20460;-43
2021/11/20 03:47:52;;;;;;;15.73;12.00;;;10.00;87.40;;;;;;4920562;29;20457;-43
2021/11/20 03:50:20;;;;;;;14.67;12.10;;;10.00;87.40;;;;;;4916597;29;20471;-43
2021/11/20 03:52:47;;;;;;;18.20;12.77;;;10.00;87.40;;;;;;4918303;29;20467;-43
2021/11/20 03:55:18;;;;;;;19.90;12.77;;;10.00;87.40;;;;;;4919351;29;20476;-42
2021/11/20 03:57:45;;;;;;;17.87;13.00;;;10.00;87.40;;;;;;4902096;29;20457;-42
2021/11/20 04:00:16;;;;;;;15.90;12.00;;;10.00;87.40;;;;;;4907743;29;20493;-43
2021/11/20 04:02:44;;;;;;;15.90;12.73;;;10.00;87.40;;;;;;4919149;29;20468;-43
2021/11/20 04:05:12;;;;;;;16.87;12.60;;;10.00;87.40;;;;;;4918582;29;20461;-43
2021/11/20 04:07:38;;;;;;;18.30;12.30;;;10.00;87.50;;;;;;4919764;29;20471;-43
2021/11/20 04:10:08;;;;;;;20.00;12.77;;;10.00;87.50;;;;;;4901446;29;20814;-43
2021/11/20 04:12:35;;;;;;;17.93;11.53;;;10.00;87.50;;;;;;4918432;29;20920;-43
2021/11/20 04:15:05;;;;;;;16.33;11.50;;;10.00;87.50;;;;;;4916323;29;20457;-43
2021/11/20 04:17:32;;;;;;;22.83;13.40;;;10.00;87.60;;;;;;4918550;29;20952;-43
2021/11/20 04:19:59;;;;;;;46.17;28.17;;;10.00;87.60;;;;;;4919999;29;21008;-43
2021/11/20 04:22:26;;;;;;;72.60;41.47;;;10.00;87.60;;;;;;4917049;29;20533;-43
2021/11/20 04:24:53;;;;;;;77.40;38.80;;;10.00;87.60;;;;;;4919545;29;20464;-43
2021/11/20 04:27:20;;;;;;;30.13;18.03;;;10.00;87.50;;;;;;4902457;29;20463;-43
2021/11/20 04:29:47;;;;;;;26.83;19.63;;;10.00;87.60;;;;;;4919602;29;20524;-43
2021/11/20 04:32:13;;;;;;;24.93;17.67;;;10.00;87.60;;;;;;4902796;29;20860;-43
2021/11/20 04:34:40;;;;;;;20.27;14.33;;;9.90;87.60;;;;;;4920441;29;20469;-43
2021/11/20 04:37:08;;;;;;;18.33;12.80;;;9.90;87.70;;;;;;4902095;29;20457;-43
2021/11/20 04:39:35;;;;;;;17.93;13.40;;;9.90;87.60;;;;;;4907555;29;20943;-43
2021/11/20 04:42:02;;;;;;;19.40;13.40;;;9.90;87.60;;;;;;4918508;29;20457;-43
2021/11/20 04:44:29;;;;;;;22.50;13.20;;;9.90;87.60;;;;;;4918288;29;20548;-42
2021/11/20 04:46:56;;;;;;;25.27;13.60;;;9.90;87.70;;;;;;4919046;29;20461;-42
2021/11/20 04:49:23;;;;;;;18.47;13.00;;;9.90;87.70;;;;;;4903330;29;20540;-43
2021/11/20 04:51:49;;;;;;;21.30;13.83;;;9.90;87.80;;;;;;4916621;29;20461;-43
2021/11/20 04:54:16;;;;;;;21.00;14.63;;;9.90;87.80;;;;;;4904662;29;20460;-43
2021/11/20 04:56:43;;;;;;;20.93;13.07;;;9.90;87.60;;;;;;4917364;29;20536;-43
2021/11/20 04:59:10;;;;;;;20.23;13.37;;;9.90;87.60;;;;;;4918367;29;20484;-43
2021/11/20 05:01:37;;;;;;;20.13;14.20;;;9.90;87.60;;;;;;4917324;29;20472;-43
2021/11/20 05:04:04;;;;;;;20.03;13.37;;;9.90;87.70;;;;;;4916607;29;21036;-43
2021/11/20 05:06:31;;;;;;;17.53;13.83;;;9.90;87.70;;;;;;4917685;29;20544;-43
2021/11/20 05:08:59;;;;;;;17.90;13.60;;;9.90;87.70;;;;;;4902337;29;20528;-45
2021/11/20 05:11:31;;;;;;;21.93;14.30;;;9.90;87.70;;;;;;4918855;29;20449;-42
2021/11/20 05:13:59;;;;;;;20.70;14.00;;;9.90;87.70;;;;;;4917338;29;20906;-43
2021/11/20 05:16:26;;;;;;;24.17;15.80;;;9.90;87.60;;;;;;4918923;29;20465;-43
2021/11/20 05:18:53;;;;;;;22.27;13.20;;;9.90;87.60;;;;;;4920156;29;20548;-43
2021/11/20 05:21:22;;;;;;;21.00;14.13;;;9.90;87.50;;;;;;4929845;29;20465;-43
2021/11/20 05:23:51;;;;;;;19.63;14.47;;;9.90;87.50;;;;;;4903375;29;20476;-43
2021/11/20 05:26:18;;;;;;;28.20;15.73;;;9.90;87.50;;;;;;4921717;29;20456;-43
2021/11/20 05:28:51;;;;;;;24.07;14.90;;;9.90;87.50;;;;;;4921662;29;20816;-43
2021/11/20 05:31:19;;;;;;;23.23;15.07;;;10.00;87.40;;;;;;4921615;29;20457;-43
2021/11/20 05:33:50;;;;;;;22.67;14.00;;;9.90;87.50;;;;;;4922003;29;20867;-43
2021/11/20 05:36:20;;;;;;;22.93;15.40;;;9.90;87.20;;;;;;4920293;29;20480;-43
2021/11/20 05:38:47;;;;;;;24.23;13.87;;;9.90;87.40;;;;;;4920082;29;20464;-43
2021/11/20 05:41:13;;;;;;;23.40;15.10;;;9.90;87.40;;;;;;4921719;29;20591;-43
2021/11/20 05:43:40;;;;;;;23.63;15.23;;;9.90;87.40;;;;;;4905328;29;20457;-43
2021/11/20 05:46:11;;;;;;;23.63;15.37;;;9.90;87.40;;;;;;4922032;29;20453;-43
2021/11/20 05:48:38;;;;;;;24.33;14.93;;;9.90;87.20;;;;;;4922485;29;21024;-43
2021/11/20 05:51:07;;;;;;;23.30;16.23;;;9.90;87.20;;;;;;4905656;29;20452;-43
2021/11/20 05:53:33;;;;;;;23.87;15.77;;;9.90;87.20;;;;;;4921973;29;20464;-42
2021/11/20 05:56:01;;;;;;;22.97;14.60;;;9.90;87.20;;;;;;4904939;29;20484;-44
2021/11/20 05:58:28;;;;;;;26.47;15.43;;;9.90;87.20;;;;;;4921812;29;20895;-43
2021/11/20 06:01:00;;;;;;;20.57;14.40;;;9.90;87.20;;;;;;4906606;29;20485;-43
2021/11/20 06:03:28;;;;;;;24.10;14.67;;;9.90;87.00;;;;;;4919776;29;21001;-43
2021/11/20 06:05:56;;;;;;;26.00;14.60;;;9.90;87.20;;;;;;4920654;29;20984;-44
2021/11/20 06:08:23;;;;;;;25.80;15.00;;;9.90;87.20;;;;;;4920070;29;20507;-43
2021/11/20 06:10:52;;;;;;;24.83;16.00;;;9.90;87.20;;;;;;4916400;29;21176;-43
2021/11/20 06:13:20;;;;;;;22.83;15.83;;;9.90;87.20;;;;;;4924361;29;20544;-43
2021/11/20 06:15:47;;;;;;;25.47;15.90;;;9.90;87.20;;;;;;4905534;29;20467;-44
2021/11/20 06:18:14;;;;;;;25.47;15.33;;;9.90;87.00;;;;;;4918416;29;20460;-43
2021/11/20 06:20:43;;;;;;;20.27;15.33;;;9.90;87.20;;;;;;4903872;29;20508;-43
2021/11/20 06:23:24;;;;;;;20.63;13.83;;;9.80;87.00;;;;;;4903742;29;21031;-43
2021/11/20 06:25:51;;;;;;;23.13;15.20;;;9.90;87.20;;;;;;4916102;29;20464;-43
2021/11/20 06:28:17;;;;;;;30.23;16.13;;;9.90;87.20;;;;;;4901380;29;20467;-43
2021/11/20 06:30:44;;;;;;;22.73;15.27;;;9.80;87.20;;;;;;4918316;29;20461;-43
2021/11/20 06:33:11;;;;;;;24.67;15.53;;;9.90;87.20;;;;;;4902771;29;20469;-43
2021/11/20 06:35:39;;;;;;;27.07;16.90;;;9.80;87.20;;;;;;4919991;29;20839;-44
2021/11/20 06:38:06;;;;;;;21.63;14.90;;;9.80;87.20;;;;;;4921198;29;20465;-45
2021/11/20 06:40:40;;;;;;;26.33;17.63;;;9.80;87.20;;;;;;4903818;29;20491;-44
2021/11/20 06:43:08;;;;;;;26.20;16.87;;;9.80;87.20;;;;;;4915798;29;20492;-44
2021/11/20 06:45:38;;;;;;;25.20;15.30;;;9.80;87.20;;;;;;4920818;29;20460;-44
2021/11/20 06:48:07;;;;;;;24.93;15.70;;;9.80;87.20;;;;;;4902084;29;20500;-44
2021/11/20 06:50:35;;;;;;;25.70;16.57;;;9.90;87.00;;;;;;4904116;29;20559;-44
2021/11/20 06:53:04;;;;;;;23.00;15.53;;;9.80;87.20;;;;;;4919552;29;20469;-44
2021/11/20 06:55:34;;;;;;;22.60;15.97;;;9.80;87.00;;;;;;4919489;29;20510;-44
2021/11/20 07:01:02;;;;;;;25.10;17.83;;;9.80;87.20;;;;;;4918814;29;20507;-44
2021/11/20 07:03:46;;;;;;;28.13;17.53;;;9.80;87.20;;;;;;4919084;29;20464;-43
2021/11/20 07:06:17;;;;;;;26.37;16.77;;;9.80;87.20;;;;;;4900716;29;21037;-44
2021/11/20 07:08:45;;;;;;;24.83;17.63;;;9.80;87.20;;;;;;4919689;29;20496;-44
2021/11/20 07:11:14;;;;;;;30.10;17.93;;;9.80;87.00;;;;;;4920273;29;20491;-44
2021/11/20 07:13:41;;;;;;;26.33;18.40;;;9.80;87.20;;;;;;4920508;29;21004;-44
2021/11/20 07:16:11;;;;;;;28.53;18.47;;;9.80;87.20;;;;;;4919711;29;20723;-44
2021/11/20 07:18:39;;;;;;;25.87;17.30;;;9.80;87.30;;;;;;4918698;29;20465;-44
2021/11/20 07:21:07;;;;;;;30.73;18.90;;;9.80;87.20;;;;;;4920011;29;21504;-44
2021/11/20 07:23:34;;;;;;;27.87;17.37;;;9.80;87.20;;;;;;4900836;29;20472;-44
2021/11/20 07:26:01;;;;;;;35.87;19.67;;;9.80;87.20;;;;;;4921574;29;20834;-44
2021/11/20 07:28:28;;;;;;;27.53;18.77;;;9.80;87.20;;;;;;4916259;29;20465;-44
2021/11/20 07:30:55;;;;;;;24.13;16.67;;;9.80;87.20;;;;;;4903385;29;20573;-44
2021/11/20 07:33:23;;;;;;;33.03;18.37;;;9.80;87.20;;;;;;4914284;29;20473;-44
2021/11/20 07:35:56;;;;;;;26.60;18.50;;;9.80;87.20;;;;;;4917626;29;20551;-44
2021/11/20 07:38:31;;;;;;;26.47;17.33;;;9.80;87.20;;;;;;4919152;29;20457;-44
2021/11/20 07:40:58;;;;;;;30.43;18.50;;;9.80;87.30;;;;;;4916524;29;20929;-44
2021/11/20 07:43:25;;;;;;;32.67;19.57;;;9.80;87.20;;;;;;4910793;29;20487;-44
2021/11/20 07:45:52;;;;;;;28.10;19.27;;;9.80;87.40;;;;;;4902663;29;20464;-44
2021/11/20 07:48:22;;;;;;;29.90;19.20;;;9.80;87.20;;;;;;4893332;29;20747;-44
2021/11/20 07:50:52;;;;;;;31.60;18.27;;;9.80;87.20;;;;;;4926042;29;20477;-44
2021/11/20 07:53:19;;;;;;;27.10;16.23;;;9.80;87.20;;;;;;4910531;29;20473;-44
2021/11/20 07:55:47;;;;;;;33.50;19.20;;;9.80;87.00;;;;;;4901548;29;20959;-44
2021/11/20 07:58:15;;;;;;;60.43;41.27;;;9.80;87.20;;;;;;4917701;29;20523;-44
2021/11/20 08:00:42;;;;;;;41.50;27.20;;;9.80;87.00;;;;;;4913258;29;21010;-44
2021/11/20 08:03:10;;;;;;;30.67;21.67;;;9.90;87.00;;;;;;4916894;29;20472;-44
2021/11/20 08:05:37;;;;;;;31.00;21.03;;;9.90;87.00;;;;;;4916651;29;20457;-44
2021/11/20 08:08:05;;;;;;;34.20;19.70;;;9.90;87.00;;;;;;4915573;29;20461;-44
2021/11/20 08:10:34;;;;;;;26.80;17.83;;;9.90;87.00;;;;;;4916676;29;20465;-44
2021/11/20 08:13:01;;;;;;;30.17;19.33;;;9.90;86.90;;;;;;4928626;29;20934;-44
2021/11/20 08:15:29;;;;;;;30.30;18.53;;;9.90;86.90;;;;;;4911852;29;20916;-44
2021/11/20 08:17:56;;;;;;;33.90;22.90;;;9.90;86.90;;;;;;4916943;29;20485;-44
2021/11/20 08:20:27;;;;;;;33.27;20.60;;;10.00;86.80;;;;;;4913708;29;21079;-44
2021/11/20 08:22:54;;;;;;;34.20;21.90;;;10.00;86.80;;;;;;4896592;29;20461;-43
2021/11/20 08:25:24;;;;;;;35.80;24.57;;;10.00;86.80;;;;;;4913922;29;20552;-44
2021/11/20 08:27:51;;;;;;;30.93;19.13;;;10.00;86.80;;;;;;4915391;29;20460;-44
2021/11/20 08:30:22;;;;;;;30.07;19.37;;;10.00;86.80;;;;;;4918124;29;20828;-44
2021/11/20 08:32:49;;;;;;;37.40;19.80;;;10.00;86.80;;;;;;4920787;29;20463;-44
2021/11/20 08:35:20;;;;;;;28.07;17.33;;;10.00;86.60;;;;;;4914392;29;20465;-44
2021/11/20 08:37:47;;;;;;;25.87;18.47;;;10.00;86.50;;;;;;4900284;29;20520;-43
2021/11/20 08:40:18;;;;;;;27.17;18.33;;;10.00;86.70;;;;;;4898617;29;20491;-43
2021/11/20 08:42:46;;;;;;;29.97;18.50;;;10.10;86.60;;;;;;4917160;29;20475;-44
2021/11/20 08:45:16;;;;;;;29.33;17.33;;;10.10;86.50;;;;;;4915324;29;20471;-44
2021/11/20 08:47:45;;;;;;;20.97;15.30;;;10.20;86.40;;;;;;4897190;29;22532;-44
2021/11/20 08:50:17;;;;;;;26.27;18.50;;;10.10;86.40;;;;;;4914913;29;20464;-44
2021/11/20 08:52:45;;;;;;;27.17;17.07;;;10.10;86.50;;;;;;4914308;29;20475;-44
2021/11/20 08:55:13;;;;;;;29.20;18.10;;;10.20;86.30;;;;;;4916393;29;20493;-43
2021/11/20 08:57:42;;;;;;;28.27;17.90;;;10.20;86.30;;;;;;4913639;29;20965;-43
2021/11/20 09:00:36;;;;;;;29.00;18.33;;;10.20;86.30;;;;;;4919600;29;20528;-43
2021/11/20 09:03:28;;;;;;;25.87;17.20;;;10.20;86.30;;;;;;4915986;29;20972;-44
2021/11/20 09:06:10;;;;;;;28.90;17.67;;;10.20;86.30;;;;;;4917735;29;20964;-44
2021/11/20 09:09:15;;;;;;;32.97;19.60;;;10.20;86.30;;;;;;4901099;29;20464;-44
2021/11/20 09:11:52;;;;;;;36.47;18.60;;;10.20;86.20;;;;;;4910257;29;20500;-44
2021/11/20 09:14:28;;;;;;;54.13;19.53;;;10.30;86.10;;;;;;4916668;29;20465;-44
2021/11/20 09:16:59;;;;;;;83.13;27.10;;;10.30;86.10;;;;;;4900398;29;20472;-44
2021/11/20 09:19:38;;;;;;;36.23;20.20;;;10.30;86.10;;;;;;4917947;29;20469;-44
2021/11/20 09:22:06;;;;;;;25.77;16.80;;;10.40;86.00;;;;;;4897852;29;20496;-44
2021/11/20 09:24:38;;;;;;;29.10;18.10;;;10.40;85.90;;;;;;4915218;29;20463;-44
2021/11/20 09:27:25;;;;;;;29.40;18.50;;;10.50;85.90;;;;;;4918394;29;20453;-44
2021/11/20 09:29:52;;;;;;;113.30;29.33;;;10.50;85.90;;;;;;4914110;29;20681;-44
2021/11/20 09:32:19;;;;;;;29.17;18.93;;;10.50;85.80;;;;;;4913859;29;20483;-44
2021/11/20 09:34:46;;;;;;;36.63;17.47;;;10.60;85.50;;;;;;4919602;29;20463;-44
2021/11/20 09:37:14;;;;;;;28.70;17.13;;;10.60;85.50;;;;;;4898098;29;20465;-44
2021/11/20 09:39:41;;;;;;;26.10;17.30;;;10.60;85.40;;;;;;4915276;29;20480;-44
2021/11/20 09:42:35;;;;;;;28.30;17.23;;;10.60;85.30;;;;;;4914079;29;20492;-44
2021/11/20 09:45:16;;;;;;;26.30;16.37;;;10.60;85.20;;;;;;4917492;29;20456;-44
2021/11/20 09:47:53;;;;;;;29.27;17.90;;;10.70;84.90;;;;;;4918372;29;20500;-44
2021/11/20 09:50:38;;;;;;;30.27;18.27;;;10.70;84.90;;;;;;4924478;29;21671;-44
2021/11/20 09:53:07;;;;;;;28.17;17.90;;;10.70;84.90;;;;;;4915054;29;20922;-43
2021/11/20 09:55:40;;;;;;;27.10;17.93;;;10.80;85.00;;;;;;4917554;29;20483;-43
2021/11/20 09:58:19;;;;;;;27.30;16.67;;;10.80;84.90;;;;;;4913864;29;20469;-43
2021/11/20 10:00:54;;;;;;;24.70;16.87;;;10.90;84.80;;;;;;4915873;29;20499;-43
2021/11/20 10:03:29;;;;;;;24.53;15.80;;;10.90;84.60;;;;;;4913816;29;20472;-43
2021/11/20 10:06:33;;;;;;;26.47;16.90;;;10.90;84.50;;;;;;4916835;29;20444;-44
2021/11/20 10:09:28;;;;;;;26.27;16.50;;;11.00;84.30;;;;;;4861069;29;1095630;-44
2021/11/20 10:12:35;;;;;;;24.60;18.13;;;11.00;84.10;;;;;;4919580;29;20212;-44
2021/11/20 10:15:29;;;;;;;25.50;17.90;;;11.10;83.40;;;;;;4910876;29;20477;-44
2021/11/20 10:18:05;;;;;;;27.03;17.53;;;11.10;83.40;;;;;;4918255;29;20504;-44
2021/11/20 10:20:38;;;;;;;24.27;16.10;;;11.10;83.70;;;;;;4918080;29;20508;-44
2021/11/20 10:23:10;;;;;;;27.07;16.97;;;11.10;83.70;;;;;;4920035;29;20488;-44
2021/11/20 10:25:38;;;;;;;29.20;16.90;;;11.10;83.60;;;;;;4918104;29;20504;-44
2021/11/20 10:28:17;;;;;;;33.80;18.97;;;11.20;83.30;;;;;;4905229;29;20749;-44
2021/11/20 10:31:10;;;;;;;32.00;16.87;;;11.20;83.50;;;;;;4902181;29;20464;-44
2021/11/20 10:33:45;;;;;;;26.00;16.23;;;11.20;83.70;;;;;;4910829;29;20504;-44
2021/11/20 10:36:38;;;;;;;26.80;16.63;;;11.30;83.50;;;;;;4915478;29;20855;-44
2021/11/20 10:39:14;;;;;;;36.63;18.20;;;11.30;83.50;;;;;;4916952;29;20469;-44
2021/11/20 10:41:51;;;;;;;31.60;17.57;;;11.40;83.40;;;;;;4916558;29;20492;-44
2021/11/20 10:44:23;;;;;;;25.10;17.33;;;11.40;83.40;;;;;;4918005;29;20466;-44
2021/11/20 10:47:05;;;;;;;26.63;17.30;;;11.50;83.30;;;;;;4909826;29;20559;-44
2021/11/20 10:50:01;;;;;;;25.00;15.70;;;11.50;83.10;;;;;;4912843;29;20560;-44
2021/11/20 10:52:53;;;;;;;28.30;18.20;;;11.50;83.00;;;;;;4917282;29;20460;-43
2021/11/20 10:55:54;;;;;;;24.77;17.20;;;11.60;82.60;;;;;;4912341;29;20484;-43
2021/11/20 10:58:48;;;;;;;24.07;16.60;;;11.60;82.50;;;;;;4913797;29;20468;-43
2021/11/20 11:01:43;;;;;;;35.07;16.57;;;11.60;82.20;;;;;;4916643;29;20489;-43
2021/11/20 11:04:40;;;;;;;25.83;14.77;;;11.70;82.20;;;;;;4899387;29;20449;-43
2021/11/20 11:07:21;;;;;;;24.40;17.00;;;11.80;81.60;;;;;;4914779;29;20457;-43
2021/11/20 11:09:55;;;;;;;26.50;16.50;;;11.80;81.80;;;;;;4908170;29;20729;-43
2021/11/20 11:12:41;;;;;;;23.57;16.40;;;11.80;81.70;;;;;;4915396;29;21060;-43
2021/11/20 11:15:10;;;;;;;21.67;15.10;;;11.70;81.60;;;;;;4915904;29;20567;-43
2021/11/20 11:17:59;;;;;;;25.27;17.10;;;11.80;81.80;;;;;;4911991;29;20461;-43
2021/11/20 11:21:03;;;;;;;26.57;17.23;;;11.80;81.80;;;;;;4915432;29;20461;-43
2021/11/20 11:23:48;;;;;;;24.80;16.40;;;11.90;81.60;;;;;;4913636;29;20473;-43
2021/11/20 11:26:16;;;;;;;23.83;15.60;;;11.90;81.60;;;;;;4916003;29;20467;-44
2021/11/20 11:29:01;;;;;;;22.87;16.40;;;11.90;81.60;;;;;;4902230;29;20944;-44
2021/11/20 11:31:32;;;;;;;25.63;14.23;;;12.00;81.60;;;;;;4898112;29;21052;-44
2021/11/20 11:34:42;;;;;;;23.33;15.97;;;12.00;81.50;;;;;;4902226;29;20442;-44
2021/11/20 11:37:33;;;;;;;24.53;17.17;;;12.10;81.40;;;;;;4840483;29;20475;-44
2021/11/20 11:40:30;;;;;;;26.53;16.60;;;12.10;80.80;;;;;;4842653;29;21288;-44
2021/11/20 11:43:03;;;;;;;25.83;16.53;;;12.10;80.80;;;;;;4907210;29;20554;-44
2021/11/20 11:46:00;;;;;;;25.77;16.10;;;12.20;80.70;;;;;;4912371;29;20544;-44
2021/11/20 11:48:45;;;;;;;22.10;15.60;;;12.20;80.80;;;;;;4898520;29;20465;-44
2021/11/20 11:51:21;;;;;;;25.30;14.60;;;12.20;80.30;;;;;;4916338;29;20483;-44
2021/11/20 11:54:02;;;;;;;23.63;14.83;;;12.30;80.30;;;;;;4909199;29;20468;-44
2021/11/20 11:56:37;;;;;;;25.97;16.43;;;12.20;80.30;;;;;;4910231;29;20492;-43
2021/11/20 11:59:09;;;;;;;23.30;15.47;;;12.20;80.60;;;;;;4912916;29;20555;-43
2021/11/20 12:01:45;;;;;;;23.73;16.70;;;12.20;80.30;;;;;;4910664;29;20489;-44
2021/11/20 12:04:29;;;;;;;20.97;15.70;;;12.20;80.40;;;;;;4914145;29;20481;-44
2021/11/20 12:07:21;;;;;;;21.57;15.43;;;12.30;80.60;;;;;;4915094;29;20465;-44
2021/11/20 12:09:49;;;;;;;22.43;15.23;;;12.30;80.60;;;;;;4915273;29;20449;-44
2021/11/20 12:12:30;;;;;;;24.53;16.80;;;12.30;80.50;;;;;;4914387;29;20471;-44
2021/11/20 12:15:32;;;;;;;21.67;16.20;;;12.40;80.40;;;;;;4912327;29;20478;-43
2021/11/20 12:18:39;;;;;;;23.77;15.83;;;12.40;80.30;;;;;;4846238;29;20521;-43
2021/11/20 12:21:59;;;;;;;23.37;15.20;;;12.50;79.90;;;;;;4908930;29;20500;-43
2021/11/20 12:24:51;;;;;;;27.67;16.37;;;12.40;79.80;;;;;;4855888;29;20817;-43
2021/11/20 12:27:42;;;;;;;26.87;16.77;;;12.50;79.00;;;;;;4910237;29;20469;-43
2021/11/20 12:30:46;;;;;;;24.13;15.37;;;12.50;79.00;;;;;;4910076;29;20472;-43
2021/11/20 12:33:16;;;;;;;25.77;15.87;;;12.40;79.30;;;;;;4908769;29;20460;-43
2021/11/20 12:36:11;;;;;;;30.77;17.37;;;12.40;79.50;;;;;;4890392;29;20543;-44
2021/11/20 12:38:56;;;;;;;25.30;17.00;;;12.40;79.50;;;;;;4908485;29;20988;-43
2021/11/20 12:41:42;;;;;;;21.17;15.13;;;12.40;79.60;;;;;;4907865;29;20488;-43
2021/11/20 12:44:46;;;;;;;22.00;18.10;;;12.50;79.50;;;;;;4910440;29;20992;-43
2021/11/20 12:47:49;;;;;;;21.60;15.77;;;12.50;79.50;;;;;;4911036;29;20539;-43
2021/11/20 12:50:35;;;;;;;21.23;15.10;;;12.50;79.50;;;;;;4905889;29;20906;-43
2021/11/20 12:53:24;;;;;;;18.80;13.20;;;12.50;78.40;;;;;;4910773;29;20464;-43
2021/11/20 12:56:03;;;;;;;24.17;15.40;;;12.60;76.60;;;;;;4893171;29;20524;-43
2021/11/20 12:58:42;;;;;;;20.97;14.80;;;12.50;77.10;;;;;;4908477;29;20468;-43
2021/11/20 13:01:12;;;;;;;15.13;11.30;;;12.50;75.40;;;;;;4896589;29;20621;-43
2021/11/20 13:03:43;;;;;;;16.77;12.57;;;12.40;74.80;;;;;;4907054;29;20465;-43
2021/11/20 13:06:30;;;;;;;17.30;12.77;;;12.40;74.00;;;;;;4911575;29;20981;-43